createdAt,value
2019-03-21T00:03:15.765Z,8.48
2019-03-21T00:07:24.434Z,8.49
2019-03-21T00:11:57.441Z,8.45
2019-03-21T00:16:06.048Z,8.14
2019-03-21T00:20:16.536Z,8.26
2019-03-21T00:24:25.794Z,8.11
2019-03-21T00:28:34.023Z,8.19
2019-03-21T00:32:42.741Z,8.08
2019-03-21T00:36:51.568Z,8.07
2019-03-21T00:40:59.899Z,8.02
2019-03-21T00:45:09.849Z,7.96
2019-03-21T00:49:18.585Z,7.81
2019-03-21T00:53:26.920Z,7.90
2019-03-21T00:57:36.146Z,7.84
2019-03-21T01:01:44.381Z,7.70
2019-03-21T01:05:53.204Z,7.51
2019-03-21T01:10:01.537Z,7.78
2019-03-21T01:14:09.843Z,7.63
2019-03-21T01:18:18.674Z,7.62
2019-03-21T01:22:27.421Z,7.76
2019-03-21T01:26:36.032Z,7.74
2019-03-21T01:30:44.778Z,7.56
2019-03-21T01:34:54.038Z,7.72
2019-03-21T01:39:02.340Z,7.82
2019-03-21T01:43:11.482Z,7.42
2019-03-21T01:47:20.215Z,7.40
2019-03-21T01:51:28.644Z,7.03
2019-03-21T01:55:37.064Z,7.29
2019-03-21T01:59:45.290Z,7.32
2019-03-21T02:03:53.912Z,7.18
2019-03-21T02:08:02.963Z,7.10
2019-03-21T02:12:11.361Z,7.16
2019-03-21T02:16:19.595Z,7.13
2019-03-21T02:20:27.916Z,7.14
2019-03-21T02:24:36.341Z,7.09
2019-03-21T02:28:45.054Z,6.96
2019-03-21T02:32:55.634Z,6.78
2019-03-21T02:37:04.083Z,6.59
2019-03-21T02:41:12.994Z,6.63
2019-03-21T02:45:21.853Z,6.78
2019-03-21T02:49:30.156Z,6.96
2019-03-21T02:53:39.315Z,6.73
2019-03-21T02:57:47.431Z,6.59
2019-03-21T03:01:56.172Z,6.55
2019-03-21T03:06:05.203Z,6.27
2019-03-21T03:10:15.136Z,6.55
2019-03-21T03:14:23.784Z,6.54
2019-03-21T03:18:32.824Z,6.80
2019-03-21T03:22:41.142Z,6.76
2019-03-21T03:26:49.680Z,6.48
2019-03-21T03:30:58.703Z,6.60
2019-03-21T03:35:08.241Z,6.64
2019-03-21T03:39:16.884Z,6.11
2019-03-21T03:43:25.229Z,6.34
2019-03-21T03:47:33.636Z,6.20
2019-03-21T03:51:42.371Z,6.19
2019-03-21T03:55:50.808Z,6.31
2019-03-21T03:59:59.229Z,6.37
2019-03-21T04:04:07.546Z,6.41
2019-03-21T04:08:15.875Z,6.49
2019-03-21T04:12:24.286Z,6.30
2019-03-21T04:16:32.719Z,6.11
2019-03-21T04:20:42.392Z,6.16
2019-03-21T04:24:50.888Z,6.20
2019-03-21T04:29:01.163Z,6.19
2019-03-21T04:33:10.919Z,6.32
2019-03-21T04:37:19.031Z,6.35
2019-03-21T04:41:27.343Z,6.20
2019-03-21T04:45:35.776Z,6.10
2019-03-21T04:49:44.518Z,6.18
2019-03-21T04:53:53.653Z,6.00
2019-03-21T04:58:01.891Z,5.82
2019-03-21T05:02:10.708Z,5.90
2019-03-21T05:06:19.340Z,6.10
2019-03-21T05:10:27.670Z,6.53
2019-03-21T05:14:36.271Z,6.87
2019-03-21T05:18:46.132Z,7.23
2019-03-21T05:22:54.482Z,7.41
2019-03-21T05:27:03.000Z,7.78
2019-03-21T05:31:15.000Z,8.14
2019-03-21T05:35:23.420Z,8.07
2019-03-21T05:39:31.852Z,8.55
2019-03-21T05:43:43.729Z,8.43
2019-03-21T05:47:52.572Z,9.88
2019-03-21T05:52:00.915Z,10.04
2019-03-21T05:56:09.928Z,9.64
2019-03-21T06:00:30.569Z,10.93
2019-03-21T06:04:39.308Z,11.03
2019-03-21T06:08:47.917Z,10.56
2019-03-21T06:12:56.251Z,10.32
2019-03-21T06:17:05.180Z,9.52
2019-03-21T06:21:21.507Z,9.99
2019-03-21T06:26:05.439Z,9.65
2019-03-21T06:30:14.179Z,9.41
2019-03-21T06:34:22.388Z,9.35
2019-03-21T06:38:31.225Z,9.37
2019-03-21T06:42:39.763Z,9.18
2019-03-21T06:46:49.624Z,9.24
2019-03-21T06:50:58.558Z,9.38
2019-03-21T06:55:07.376Z,9.04
2019-03-21T06:59:15.700Z,8.93
2019-03-21T07:03:24.242Z,9.33
2019-03-21T07:07:32.691Z,9.34
2019-03-21T07:11:41.918Z,9.47
2019-03-21T07:15:50.137Z,9.64
2019-03-21T07:19:59.053Z,9.69
2019-03-21T07:24:07.393Z,9.51
2019-03-21T07:28:16.122Z,9.76
2019-03-21T07:32:33.116Z,9.90
2019-03-21T07:36:34.285Z,9.65
2019-03-21T07:40:43.327Z,9.85
2019-03-21T07:44:51.561Z,9.87
2019-03-21T07:49:00.447Z,10.27
2019-03-21T07:53:08.713Z,10.23
2019-03-21T07:57:17.581Z,10.51
2019-03-21T08:01:25.870Z,10.96
2019-03-21T08:05:40.425Z,11.19
2019-03-21T08:09:44.827Z,11.04
2019-03-21T08:13:53.092Z,10.97
2019-03-21T08:18:01.835Z,11.38
2019-03-21T08:22:10.052Z,11.82
2019-03-21T08:26:18.783Z,12.17
2019-03-21T08:30:59.543Z,12.10
2019-03-21T08:35:08.121Z,12.04
2019-03-21T08:39:16.786Z,12.38
2019-03-21T08:43:25.165Z,12.58
2019-03-21T08:47:33.965Z,12.40
2019-03-21T08:51:42.218Z,12.64
2019-03-21T08:55:51.100Z,13.25
2019-03-21T08:59:59.850Z,13.83
2019-03-21T09:04:08.865Z,14.98
2019-03-21T09:08:17.772Z,16.17
2019-03-21T09:12:26.968Z,13.67
2019-03-21T09:16:35.335Z,14.79
2019-03-21T09:20:44.018Z,14.71
2019-03-21T09:24:52.461Z,14.51
2019-03-21T09:29:00.649Z,14.68
2019-03-21T09:33:09.043Z,15.71
2019-03-21T09:37:17.717Z,15.83
2019-03-21T09:41:26.083Z,15.15
2019-03-21T09:45:34.463Z,17.03
2019-03-21T09:49:42.697Z,17.24
2019-03-21T09:53:51.109Z,15.98
2019-03-21T09:57:59.787Z,15.98
2019-03-21T10:02:09.189Z,16.66
2019-03-21T10:06:18.335Z,16.00
2019-03-21T10:10:31.127Z,15.80
2019-03-21T10:14:39.480Z,17.24
2019-03-21T10:18:47.710Z,17.40
2019-03-21T10:22:56.117Z,17.03
2019-03-21T10:27:04.355Z,17.81
2019-03-21T10:31:12.562Z,17.55
2019-03-21T10:35:21.297Z,18.05
2019-03-21T10:39:29.527Z,18.96
2019-03-21T10:43:38.248Z,18.32
2019-03-21T10:47:46.978Z,18.04
2019-03-21T10:51:55.566Z,19.11
2019-03-21T10:56:04.447Z,20.13
2019-03-21T11:00:13.072Z,19.96
2019-03-21T11:04:21.294Z,19.62
2019-03-21T11:08:29.808Z,18.77
2019-03-21T11:12:38.537Z,17.66
2019-03-21T11:16:46.972Z,17.37
2019-03-21T11:20:55.311Z,18.36
2019-03-21T11:25:03.812Z,20.07
2019-03-21T11:29:12.152Z,20.49
2019-03-21T11:33:21.374Z,19.31
2019-03-21T11:37:29.618Z,19.32
2019-03-21T11:41:38.969Z,17.57
2019-03-21T11:45:48.146Z,17.04
2019-03-21T11:49:57.703Z,15.35
2019-03-21T11:54:07.902Z,15.63
2019-03-21T11:58:17.715Z,14.89
2019-03-21T12:02:27.645Z,15.11
2019-03-21T12:06:36.149Z,15.10
2019-03-21T12:10:44.371Z,14.37
2019-03-21T12:14:52.896Z,14.81
2019-03-21T12:19:01.631Z,15.17
2019-03-21T12:23:09.840Z,14.63
2019-03-21T12:27:18.180Z,14.61
2019-03-21T12:31:26.375Z,15.08
2019-03-21T12:35:34.822Z,14.46
2019-03-21T12:39:43.848Z,14.64
2019-03-21T12:43:52.086Z,14.42
2019-03-21T12:48:00.599Z,14.25
2019-03-21T12:52:09.026Z,14.48
2019-03-21T12:56:17.671Z,14.21
2019-03-21T13:00:44.808Z,13.98
2019-03-21T13:04:53.143Z,13.88
2019-03-21T13:09:01.370Z,13.78
2019-03-21T13:13:11.415Z,13.48
2019-03-21T13:17:20.073Z,13.61
2019-03-21T13:21:28.578Z,13.61
2019-03-21T13:25:37.714Z,13.28
2019-03-21T13:29:45.984Z,13.24
2019-03-21T13:33:55.188Z,13.18
2019-03-21T13:38:04.127Z,13.00
2019-03-21T13:42:12.435Z,12.69
2019-03-21T13:46:21.062Z,12.97
2019-03-21T13:50:29.691Z,12.76
2019-03-21T13:54:38.628Z,12.13
2019-03-21T13:58:47.069Z,12.70
2019-03-21T14:02:55.808Z,12.58
2019-03-21T14:07:04.338Z,12.41
2019-03-21T14:11:12.829Z,12.35
2019-03-21T14:15:22.377Z,11.57
2019-03-21T14:19:30.529Z,11.71
2019-03-21T14:23:43.609Z,12.23
2019-03-21T14:27:49.831Z,11.63
2019-03-21T14:31:58.050Z,11.26
2019-03-21T14:36:06.984Z,11.09
2019-03-21T14:40:16.132Z,10.67
2019-03-21T14:44:24.345Z,10.60
2019-03-21T14:48:32.870Z,10.74
2019-03-21T14:52:41.609Z,10.69
2019-03-21T14:56:50.114Z,10.54
2019-03-21T15:00:58.937Z,10.44
2019-03-21T15:05:08.872Z,10.43
2019-03-21T15:09:17.765Z,10.55
2019-03-21T15:13:26.215Z,10.07
2019-03-21T15:17:35.002Z,10.13
2019-03-21T15:21:43.728Z,9.92
2019-03-21T15:25:52.096Z,9.79
2019-03-21T15:30:00.885Z,9.91
2019-03-21T15:34:09.727Z,9.93
2019-03-21T15:38:18.178Z,9.77
2019-03-21T15:42:27.123Z,9.94
2019-03-21T15:46:35.640Z,9.92
2019-03-21T15:50:44.055Z,9.62
2019-03-21T15:54:52.873Z,9.73
2019-03-21T15:59:03.067Z,9.58
2019-03-21T16:03:12.167Z,9.59
2019-03-21T16:07:20.444Z,9.60
2019-03-21T16:11:28.758Z,9.70
2019-03-21T16:15:37.549Z,9.70
2019-03-21T16:19:45.908Z,9.39
2019-03-21T16:24:04.454Z,9.44
2019-03-21T16:28:04.604Z,9.56
2019-03-21T16:32:13.333Z,9.64
2019-03-21T16:36:21.748Z,9.26
2019-03-21T16:40:31.692Z,9.17
2019-03-21T16:44:40.250Z,9.43
2019-03-21T16:48:48.471Z,9.62
2019-03-21T16:52:56.788Z,9.84
2019-03-21T16:57:05.115Z,9.38
2019-03-21T17:01:13.533Z,9.64
2019-03-21T17:05:22.764Z,9.41
2019-03-21T17:09:31.275Z,9.33
2019-03-21T17:13:40.066Z,9.67
2019-03-21T17:17:48.916Z,9.50
2019-03-21T17:21:57.100Z,9.14
2019-03-21T17:26:05.518Z,9.18
2019-03-21T17:30:15.051Z,9.30
2019-03-21T17:34:23.465Z,9.23
2019-03-21T17:38:32.117Z,9.45
2019-03-21T17:42:40.929Z,9.50
2019-03-21T17:46:49.082Z,9.53
2019-03-21T17:50:57.398Z,9.72
2019-03-21T17:55:06.184Z,9.74
2019-03-21T17:59:14.960Z,9.74
2019-03-21T18:03:24.847Z,9.83
2019-03-21T18:07:33.597Z,9.70
2019-03-21T18:11:41.967Z,9.69
2019-03-21T18:15:50.497Z,9.79
2019-03-21T18:19:58.642Z,9.79
2019-03-21T18:24:07.304Z,9.74
2019-03-21T18:28:15.799Z,9.59
2019-03-21T18:32:25.497Z,9.77
2019-03-21T18:36:33.965Z,9.52
2019-03-21T18:40:42.354Z,9.69
2019-03-21T18:44:50.678Z,9.58
2019-03-21T18:48:59.201Z,9.68
2019-03-21T18:53:07.641Z,9.44
2019-03-21T18:57:15.991Z,9.55
2019-03-21T19:01:24.273Z,9.38
2019-03-21T19:05:34.078Z,9.45
2019-03-21T19:09:44.054Z,9.16
2019-03-21T19:13:52.553Z,9.38
2019-03-21T19:18:01.554Z,9.34
2019-03-21T19:22:12.125Z,9.16
2019-03-21T19:26:20.709Z,8.94
2019-03-21T19:30:28.841Z,9.05
2019-03-21T19:34:38.045Z,9.25
2019-03-21T19:38:46.219Z,9.39
2019-03-21T19:42:54.982Z,9.35
2019-03-21T19:47:03.384Z,9.24
2019-03-21T19:51:12.221Z,9.10
2019-03-21T19:55:30.360Z,9.21
2019-03-21T19:59:31.032Z,8.98
2019-03-21T20:03:39.859Z,9.11
2019-03-21T20:07:48.691Z,9.29
2019-03-21T20:11:57.002Z,9.42
2019-03-21T20:16:06.769Z,9.24
2019-03-21T20:20:18.464Z,9.11
2019-03-21T20:24:27.304Z,8.96
2019-03-21T20:28:35.692Z,9.23
2019-03-21T20:32:43.852Z,9.09
2019-03-21T20:36:52.789Z,8.80
2019-03-21T20:41:01.605Z,9.09
2019-03-21T20:45:11.132Z,9.07
2019-03-21T20:49:20.311Z,8.91
2019-03-21T20:53:29.137Z,7.92
2019-03-21T20:57:37.458Z,8.52
2019-03-21T21:01:45.786Z,8.38
2019-03-21T21:05:54.304Z,8.23
2019-03-21T21:10:02.741Z,8.23
2019-03-21T21:14:12.171Z,7.84
2019-03-21T21:18:21.346Z,8.01
2019-03-21T21:22:30.578Z,7.96
2019-03-21T21:26:39.713Z,7.67
2019-03-21T21:30:48.947Z,7.57
2019-03-21T21:34:57.255Z,7.50
2019-03-21T21:39:07.809Z,7.42
2019-03-21T21:43:16.264Z,7.11
2019-03-21T21:47:25.008Z,7.28
2019-03-21T21:51:34.954Z,6.91
2019-03-21T21:55:43.329Z,6.60
2019-03-21T21:59:53.058Z,6.87
2019-03-21T22:04:04.975Z,6.15
2019-03-21T22:08:12.042Z,6.60
2019-03-21T22:12:20.770Z,6.23
2019-03-21T22:16:29.492Z,5.61
2019-03-21T22:20:37.720Z,6.25
2019-03-21T22:24:46.044Z,6.25
2019-03-21T22:28:55.073Z,6.25
2019-03-21T22:33:03.296Z,6.21
2019-03-21T22:37:12.538Z,6.41
2019-03-21T22:41:20.975Z,5.70
2019-03-21T22:45:29.174Z,6.11
2019-03-21T22:49:37.922Z,6.37
2019-03-21T22:53:46.154Z,6.43
2019-03-21T22:57:54.964Z,6.36
2019-03-21T23:02:03.669Z,6.12
2019-03-21T23:06:11.918Z,6.18
2019-03-21T23:10:20.544Z,6.31
2019-03-21T23:14:29.075Z,6.39
2019-03-21T23:18:37.586Z,6.35
2019-03-21T23:22:46.173Z,6.09
2019-03-21T23:26:55.460Z,6.02
2019-03-21T23:31:03.705Z,6.29
2019-03-21T23:35:12.429Z,5.85
2019-03-21T23:39:20.640Z,5.89
2019-03-21T23:43:28.982Z,5.85
2019-03-21T23:47:38.114Z,5.18
2019-03-21T23:51:46.334Z,5.69
2019-03-21T23:55:55.475Z,5.80
